sensor_id;sensor_type;location;lat;lon;timestamp;pressure;altitude;pressure_sealevel;temperature;humidity
43486;BME280;30447;48.742;8.972;2023-11-21T00:01:03;96190.66;;;8.00;100.00
43486;BME280;30447;48.742;8.972;2023-11-21T00:03:31;96179.47;;;8.07;100.00
43486;BME280;30447;48.742;8.972;2023-11-21T00:05:57;96183.72;;;8.20;100.00
43486;BME280;30447;48.742;8.972;2023-11-21T00:08:24;96181.16;;;8.27;100.00
43486;BME280;30447;48.742;8.972;2023-11-21T00:10:51;96174.28;;;8.19;100.00
43486;BME280;30447;48.742;8.972;2023-11-21T00:13:17;96172.56;;;8.22;100.00
43486;BME280;30447;48.742;8.972;2023-11-21T00:15:44;96169.94;;;8.37;100.00
43486;BME280;30447;48.742;8.972;2023-11-21T00:18:11;96165.66;;;8.22;100.00
43486;BME280;30447;48.742;8.972;2023-11-21T00:20:37;96163.91;;;8.41;100.00
43486;BME280;30447;48.742;8.972;2023-11-21T00:23:04;96166.47;;;8.38;100.00
43486;BME280;30447;48.742;8.972;2023-11-21T00:25:30;96172.47;;;8.46;100.00
43486;BME280;30447;48.742;8.972;2023-11-21T00:27:57;96166.47;;;8.38;100.00
43486;BME280;30447;48.742;8.972;2023-11-21T00:30:24;96167.31;;;8.42;100.00
43486;BME280;30447;48.742;8.972;2023-11-21T00:32:51;96169.03;;;8.57;100.00
43486;BME280;30447;48.742;8.972;2023-11-21T00:35:17;96172.50;;;8.32;100.00
43486;BME280;30447;48.742;8.972;2023-11-21T00:37:44;96172.47;;;8.46;100.00
43486;BME280;30447;48.742;8.972;2023-11-21T00:40:12;96160.50;;;8.20;100.00
43486;BME280;30447;48.742;8.972;2023-11-21T00:42:40;96165.63;;;8.33;100.00
43486;BME280;30447;48.742;8.972;2023-11-21T00:45:07;96162.19;;;8.32;100.00
43486;BME280;30447;48.742;8.972;2023-11-21T00:47:34;96163.03;;;8.39;100.00
43486;BME280;30447;48.742;8.972;2023-11-21T00:50:00;96171.59;;;8.44;100.00
43486;BME280;30447;48.742;8.972;2023-11-21T00:52:27;96166.41;;;8.51;100.00
43486;BME280;30447;48.742;8.972;2023-11-21T00:54:54;96164.72;;;8.42;100.00
43486;BME280;30447;48.742;8.972;2023-11-21T00:57:20;96171.62;;;8.38;100.00
43486;BME280;30447;48.742;8.972;2023-11-21T00:59:47;96165.63;;;8.34;100.00
43486;BME280;30447;48.742;8.972;2023-11-21T01:02:14;96168.22;;;8.33;100.00
43486;BME280;30447;48.742;8.972;2023-11-21T01:04:40;96170.78;;;8.42;100.00
43486;BME280;30447;48.742;8.972;2023-11-21T01:07:07;96163.88;;;8.47;100.00
43486;BME280;30447;48.742;8.972;2023-11-21T01:09:34;96167.34;;;8.37;100.00
43486;BME280;30447;48.742;8.972;2023-11-21T01:12:00;96162.16;;;8.40;100.00
43486;BME280;30447;48.742;8.972;2023-11-21T01:14:27;96173.31;;;8.45;100.00
43486;BME280;30447;48.742;8.972;2023-11-21T01:16:54;96167.31;;;8.42;100.00
43486;BME280;30447;48.742;8.972;2023-11-21T01:19:20;96164.72;;;8.45;100.00
43486;BME280;30447;48.742;8.972;2023-11-21T01:21:47;96162.16;;;8.46;100.00
43486;BME280;30447;48.742;8.972;2023-11-21T01:24:14;96157.81;;;8.55;100.00
43486;BME280;30447;48.742;8.972;2023-11-21T01:26:40;96163.88;;;8.55;100.00
43486;BME280;30447;48.742;8.972;2023-11-21T01:29:07;96163.81;;;8.51;100.00
43486;BME280;30447;48.742;8.972;2023-11-21T01:31:33;96161.38;;;8.19;100.00
43486;BME280;30447;48.742;8.972;2023-11-21T01:34:00;96162.19;;;8.32;100.00
43486;BME280;30447;48.742;8.972;2023-11-21T01:36:30;96163.00;;;8.47;100.00
43486;BME280;30447;48.742;8.972;2023-11-21T01:39:01;96162.13;;;8.48;100.00
43486;BME280;30447;48.742;8.972;2023-11-21T01:41:34;96162.13;;;8.57;100.00
43486;BME280;30447;48.742;8.972;2023-11-21T01:44:01;96163.81;;;8.62;100.00
43486;BME280;30447;48.742;8.972;2023-11-21T01:46:28;96163.00;;;8.59;100.00
43486;BME280;30447;48.742;8.972;2023-11-21T01:48:55;96155.28;;;8.38;100.00
43486;BME280;30447;48.742;8.972;2023-11-21T01:51:22;96158.69;;;8.46;100.00
43486;BME280;30447;48.742;8.972;2023-11-21T01:53:49;96150.94;;;8.43;100.00
43486;BME280;30447;48.742;8.972;2023-11-21T01:56:16;96157.03;;;8.39;100.00
43486;BME280;30447;48.742;8.972;2023-11-21T01:58:43;96156.12;;;8.57;100.00
43486;BME280;30447;48.742;8.972;2023-11-21T02:01:10;96150.06;;;8.53;100.00
43486;BME280;30447;48.742;8.972;2023-11-21T02:03:37;96158.69;;;8.57;100.00
43486;BME280;30447;48.742;8.972;2023-11-21T02:06:03;96158.69;;;8.47;100.00
43486;BME280;30447;48.742;8.972;2023-11-21T02:08:31;96163.91;;;8.38;100.00
43486;BME280;30447;48.742;8.972;2023-11-21T02:10:58;96157.00;;;8.40;100.00
43486;BME280;30447;48.742;8.972;2023-11-21T02:13:24;96161.31;;;8.41;100.00
43486;BME280;30447;48.742;8.972;2023-11-21T02:15:51;96159.53;;;8.50;100.00
43486;BME280;30447;48.742;8.972;2023-11-21T02:18:20;96161.28;;;8.44;100.00
43486;BME280;30447;48.742;8.972;2023-11-21T02:20:48;96160.47;;;8.36;100.00
43486;BME280;30447;48.742;8.972;2023-11-21T02:23:14;96158.69;;;8.46;100.00
43486;BME280;30447;48.742;8.972;2023-11-21T02:25:41;96159.63;;;8.29;100.00
43486;BME280;30447;48.742;8.972;2023-11-21T02:28:08;96157.00;;;8.46;100.00
43486;BME280;30447;48.742;8.972;2023-11-21T02:30:38;96150.19;;;8.28;100.00
43486;BME280;30447;48.742;8.972;2023-11-21T02:33:05;96157.88;;;8.36;100.00
43486;BME280;30447;48.742;8.972;2023-11-21T02:35:33;96163.03;;;8.42;100.00
43486;BME280;30447;48.742;8.972;2023-11-21T02:38:01;96161.31;;;8.35;100.00
43486;BME280;30447;48.742;8.972;2023-11-21T02:40:28;96147.56;;;8.36;100.00
43486;BME280;30447;48.742;8.972;2023-11-21T02:42:55;96148.41;;;8.41;100.00
43486;BME280;30447;48.742;8.972;2023-11-21T02:45:24;96145.84;;;8.27;100.00
43486;BME280;30447;48.742;8.972;2023-11-21T02:47:50;96146.69;;;8.36;100.00
43486;BME280;30447;48.742;8.972;2023-11-21T02:50:19;96145.91;;;8.16;100.00
43486;BME280;30447;48.742;8.972;2023-11-21T02:52:46;96139.00;;;8.22;100.00
43486;BME280;30447;48.742;8.972;2023-11-21T02:55:13;96133.88;;;8.11;100.00
43486;BME280;30447;48.742;8.972;2023-11-21T02:57:39;96130.44;;;8.13;100.00
43486;BME280;30447;48.742;8.972;2023-11-21T03:00:07;96130.41;;;8.19;100.00
43486;BME280;30447;48.742;8.972;2023-11-21T03:02:34;96132.13;;;8.19;100.00
43486;BME280;30447;48.742;8.972;2023-11-21T03:05:06;96140.72;;;8.19;100.00
43486;BME280;30447;48.742;8.972;2023-11-21T03:07:36;96139.00;;;8.15;100.00
43486;BME280;30447;48.742;8.972;2023-11-21T03:10:08;96137.31;;;8.08;100.00
43486;BME280;30447;48.742;8.972;2023-11-21T03:12:38;96131.31;;;8.01;100.00
43486;BME280;30447;48.742;8.972;2023-11-21T03:15:06;96130.41;;;8.19;100.00
43486;BME280;30447;48.742;8.972;2023-11-21T03:17:33;96133.84;;;8.17;100.00
43486;BME280;30447;48.742;8.972;2023-11-21T03:20:04;96130.44;;;8.05;100.00
43486;BME280;30447;48.742;8.972;2023-11-21T03:22:31;96137.31;;;8.08;100.00
43486;BME280;30447;48.742;8.972;2023-11-21T03:24:57;96139.03;;;8.07;100.00
43486;BME280;30447;48.742;8.972;2023-11-21T03:27:24;96138.13;;;8.19;100.00
43486;BME280;30447;48.742;8.972;2023-11-21T03:29:51;96140.81;;;7.91;100.00
43486;BME280;30447;48.742;8.972;2023-11-21T03:32:18;96149.34;;;8.09;100.00
43486;BME280;30447;48.742;8.972;2023-11-21T03:34:55;96142.47;;;8.17;100.00
43486;BME280;30447;48.742;8.972;2023-11-21T03:37:24;96145.88;;;8.24;100.00
43486;BME280;30447;48.742;8.972;2023-11-21T03:39:51;96145.91;;;8.15;100.00
43486;BME280;30447;48.742;8.972;2023-11-21T03:42:17;96139.88;;;8.14;100.00
43486;BME280;30447;48.742;8.972;2023-11-21T03:44:44;96145.84;;;8.29;100.00
43486;BME280;30447;48.742;8.972;2023-11-21T03:47:11;96141.53;;;8.34;100.00
43486;BME280;30447;48.742;8.972;2023-11-21T03:49:37;96142.38;;;8.38;100.00
43486;BME280;30447;48.742;8.972;2023-11-21T03:52:04;96145.78;;;8.44;100.00
43486;BME280;30447;48.742;8.972;2023-11-21T03:54:31;96144.13;;;8.36;100.00
43486;BME280;30447;48.742;8.972;2023-11-21T03:56:58;96151.87;;;8.26;100.00
43486;BME280;30447;48.742;8.972;2023-11-21T03:59:24;96158.78;;;8.24;100.00
43486;BME280;30447;48.742;8.972;2023-11-21T04:01:51;96156.12;;;8.43;100.00
43486;BME280;30447;48.742;8.972;2023-11-21T04:04:18;96156.12;;;8.46;100.00
43486;BME280;30447;48.742;8.972;2023-11-21T04:06:46;96163.91;;;8.40;100.00
43486;BME280;30447;48.742;8.972;2023-11-21T04:09:12;96161.41;;;8.16;100.00
43486;BME280;30447;48.742;8.972;2023-11-21T04:11:39;96163.97;;;8.15;100.00
43486;BME280;30447;48.742;8.972;2023-11-21T04:14:05;96161.38;;;8.24;100.00
43486;BME280;30447;48.742;8.972;2023-11-21T04:16:32;96162.22;;;8.25;100.00
43486;BME280;30447;48.742;8.972;2023-11-21T04:18:59;96158.78;;;8.24;100.00
43486;BME280;30447;48.742;8.972;2023-11-21T04:21:26;96163.97;;;8.16;100.00
43486;BME280;30447;48.742;8.972;2023-11-21T04:23:53;96167.44;;;8.00;100.00
43486;BME280;30447;48.742;8.972;2023-11-21T04:26:19;96164.03;;;8.01;100.00
43486;BME280;30447;48.742;8.972;2023-11-21T04:28:46;96166.56;;;8.12;100.00
43486;BME280;30447;48.742;8.972;2023-11-21T04:31:13;96175.19;;;8.03;100.00
43486;BME280;30447;48.742;8.972;2023-11-21T04:33:39;96170.91;;;8.02;100.00
43486;BME280;30447;48.742;8.972;2023-11-21T04:36:06;96173.50;;;7.85;100.00
43486;BME280;30447;48.742;8.972;2023-11-21T04:38:33;96179.53;;;7.82;100.00
43486;BME280;30447;48.742;8.972;2023-11-21T04:41:00;96173.44;;;8.19;100.00
43486;BME280;30447;48.742;8.972;2023-11-21T04:43:27;96176.88;;;8.16;100.00
43486;BME280;30447;48.742;8.972;2023-11-21T04:45:54;96176.88;;;8.16;100.00
43486;BME280;30447;48.742;8.972;2023-11-21T04:48:21;96182.91;;;8.12;100.00
43486;BME280;30447;48.742;8.972;2023-11-21T04:50:48;96175.97;;;8.24;100.00
43486;BME280;30447;48.742;8.972;2023-11-21T04:53:14;96182.91;;;8.14;100.00
43486;BME280;30447;48.742;8.972;2023-11-21T04:55:41;96175.16;;;8.09;100.00
43486;BME280;30447;48.742;8.972;2023-11-21T04:58:07;96182.91;;;8.14;100.00
43486;BME280;30447;48.742;8.972;2023-11-21T05:00:34;96175.13;;;8.23;100.00
43486;BME280;30447;48.742;8.972;2023-11-21T05:03:03;96182.00;;;8.19;100.00
43486;BME280;30447;48.742;8.972;2023-11-21T05:05:31;96181.19;;;8.08;100.00
43486;BME280;30447;48.742;8.972;2023-11-21T05:07:57;96185.47;;;8.15;100.00
43486;BME280;30447;48.742;8.972;2023-11-21T05:10:24;96181.19;;;8.11;100.00
43486;BME280;30447;48.742;8.972;2023-11-21T05:12:51;96188.94;;;8.05;100.00
43486;BME280;30447;48.742;8.972;2023-11-21T05:15:17;96181.19;;;8.08;100.00
43486;BME280;30447;48.742;8.972;2023-11-21T05:17:44;96186.34;;;8.17;100.00
43486;BME280;30447;48.742;8.972;2023-11-21T05:20:13;96185.47;;;8.20;100.00
43486;BME280;30447;48.742;8.972;2023-11-21T05:22:43;96181.19;;;8.17;100.00
43486;BME280;30447;48.742;8.972;2023-11-21T05:25:11;96194.94;;;8.16;100.00
43486;BME280;30447;48.742;8.972;2023-11-21T05:27:38;96200.94;;;8.26;100.00
43486;BME280;30447;48.742;8.972;2023-11-21T05:30:05;96204.41;;;8.05;100.00
43486;BME280;30447;48.742;8.972;2023-11-21T05:32:33;96206.13;;;8.01;100.00
43486;BME280;30447;48.742;8.972;2023-11-21T05:35:00;96201.84;;;7.96;100.00
43486;BME280;30447;48.742;8.972;2023-11-21T05:37:27;96199.28;;;8.03;100.00
43486;BME280;30447;48.742;8.972;2023-11-21T05:39:54;96203.50;;;8.28;100.00
43486;BME280;30447;48.742;8.972;2023-11-21T05:42:23;96208.72;;;8.14;100.00
43486;BME280;30447;48.742;8.972;2023-11-21T05:44:49;96207.00;;;8.05;100.00
43486;BME280;30447;48.742;8.972;2023-11-21T05:47:16;96206.16;;;7.92;100.00
43486;BME280;30447;48.742;8.972;2023-11-21T05:49:44;96203.59;;;7.95;100.00
43486;BME280;30447;48.742;8.972;2023-11-21T05:52:11;96207.00;;;8.08;100.00
43486;BME280;30447;48.742;8.972;2023-11-21T05:54:38;96208.72;;;8.01;100.00
43486;BME280;30447;48.742;8.972;2023-11-21T05:57:04;96207.88;;;8.07;100.00
43486;BME280;30447;48.742;8.972;2023-11-21T05:59:31;96214.75;;;8.03;100.00
43486;BME280;30447;48.742;8.972;2023-11-21T06:01:58;96211.28;;;8.15;100.00
43486;BME280;30447;48.742;8.972;2023-11-21T06:04:25;96213.87;;;8.03;100.00
43486;BME280;30447;48.742;8.972;2023-11-21T06:06:52;96219.91;;;7.96;100.00
43486;BME280;30447;48.742;8.972;2023-11-21T06:09:21;96226.81;;;7.75;100.00
43486;BME280;30447;48.742;8.972;2023-11-21T06:11:48;96224.22;;;7.76;100.00
43486;BME280;30447;48.742;8.972;2023-11-21T06:14:15;96229.41;;;7.70;100.00
43486;BME280;30447;48.742;8.972;2023-11-21T06:16:44;96231.94;;;7.50;100.00
43486;BME280;30447;48.742;8.972;2023-11-21T06:19:11;96234.53;;;7.65;100.00
43486;BME280;30447;48.742;8.972;2023-11-21T06:21:38;96231.97;;;7.59;100.00
43486;BME280;30447;48.742;8.972;2023-11-21T06:24:05;96230.25;;;7.74;100.00
43486;BME280;30447;48.742;8.972;2023-11-21T06:26:32;96237.13;;;7.75;100.00
43486;BME280;30447;48.742;8.972;2023-11-21T06:28:59;96240.56;;;7.80;100.00
43486;BME280;30447;48.742;8.972;2023-11-21T06:31:26;96246.56;;;7.79;100.00
43486;BME280;30447;48.742;8.972;2023-11-21T06:33:53;96244.00;;;7.84;100.00
43486;BME280;30447;48.742;8.972;2023-11-21T06:36:20;96242.28;;;7.86;100.00
43486;BME280;30447;48.742;8.972;2023-11-21T06:38:47;96250.87;;;7.80;100.00
43486;BME280;30447;48.742;8.972;2023-11-21T06:41:13;96246.56;;;7.70;100.00
43486;BME280;30447;48.742;8.972;2023-11-21T06:43:41;96256.00;;;7.43;100.00
43486;BME280;30447;48.742;8.972;2023-11-21T06:46:12;96262.03;;;7.54;100.00
43486;BME280;30447;48.742;8.972;2023-11-21T06:48:42;96270.66;;;7.70;100.00
43486;BME280;30447;48.742;8.972;2023-11-21T06:51:09;96276.69;;;7.71;100.00
43486;BME280;30447;48.742;8.972;2023-11-21T06:53:37;96271.53;;;7.71;100.00
43486;BME280;30447;48.742;8.972;2023-11-21T06:56:04;96281.84;;;7.77;100.00
43486;BME280;30447;48.742;8.972;2023-11-21T06:58:33;96279.25;;;7.83;100.00
43486;BME280;30447;48.742;8.972;2023-11-21T07:01:00;96287.00;;;7.83;100.00
43486;BME280;30447;48.742;8.972;2023-11-21T07:03:27;96281.84;;;7.75;100.00
43486;BME280;30447;48.742;8.972;2023-11-21T07:05:53;96287.84;;;7.79;100.00
43486;BME280;30447;48.742;8.972;2023-11-21T07:08:20;96290.44;;;7.73;100.00
43486;BME280;30447;48.742;8.972;2023-11-21T07:10:46;96293.00;;;7.74;100.00
43486;BME280;30447;48.742;8.972;2023-11-21T07:13:13;96289.59;;;7.71;100.00
43486;BME280;30447;48.742;8.972;2023-11-21T07:15:40;96291.28;;;7.75;100.00
43486;BME280;30447;48.742;8.972;2023-11-21T07:18:07;96297.31;;;7.61;100.00
43486;BME280;30447;48.742;8.972;2023-11-21T07:20:34;96299.03;;;7.79;100.00
43486;BME280;30447;48.742;8.972;2023-11-21T07:23:00;96305.03;;;7.97;100.00
43486;BME280;30447;48.742;8.972;2023-11-21T07:25:27;96307.66;;;8.02;100.00
43486;BME280;30447;48.742;8.972;2023-11-21T07:27:53;96302.47;;;8.02;100.00
43486;BME280;30447;48.742;8.972;2023-11-21T07:30:21;96304.19;;;8.09;100.00
43486;BME280;30447;48.742;8.972;2023-11-21T07:32:49;96302.47;;;8.11;100.00
43486;BME280;30447;48.742;8.972;2023-11-21T07:35:15;96307.62;;;8.08;100.00
43486;BME280;30447;48.742;8.972;2023-11-21T07:37:42;96312.78;;;8.20;100.00
43486;BME280;30447;48.742;8.972;2023-11-21T07:40:09;96313.66;;;8.23;100.00
43486;BME280;30447;48.742;8.972;2023-11-21T07:42:37;96315.34;;;8.38;100.00
43486;BME280;30447;48.742;8.972;2023-11-21T07:45:05;96312.78;;;8.25;100.00
43486;BME280;30447;48.742;8.972;2023-11-21T07:47:33;96317.94;;;8.33;100.00
43486;BME280;30447;48.742;8.972;2023-11-21T07:50:03;96321.34;;;8.43;100.00
43486;BME280;30447;48.742;8.972;2023-11-21T07:52:30;96317.06;;;8.36;100.00
43486;BME280;30447;48.742;8.972;2023-11-21T07:54:56;96323.97;;;8.38;100.00
43486;BME280;30447;48.742;8.972;2023-11-21T07:57:23;96324.81;;;8.37;100.00
43486;BME280;30447;48.742;8.972;2023-11-21T07:59:50;96328.28;;;8.27;100.00
43486;BME280;30447;48.742;8.972;2023-11-21T08:02:16;96332.56;;;8.07;100.00
43486;BME280;30447;48.742;8.972;2023-11-21T08:04:44;96334.28;;;8.30;100.00
43486;BME280;30447;48.742;8.972;2023-11-21T08:07:10;96336.88;;;8.24;100.00
43486;BME280;30447;48.742;8.972;2023-11-21T08:09:37;96340.31;;;8.34;100.00
43486;BME280;30447;48.742;8.972;2023-11-21T08:12:04;96342.03;;;8.54;100.00
43486;BME280;30447;48.742;8.972;2023-11-21T08:14:31;96339.44;;;8.38;100.00
43486;BME280;30447;48.742;8.972;2023-11-21T08:16:57;96341.16;;;8.63;100.00
43486;BME280;30447;48.742;8.972;2023-11-21T08:19:24;96341.06;;;8.97;100.00
43486;BME280;30447;48.742;8.972;2023-11-21T08:21:53;96335.09;;;8.84;100.00
43486;BME280;30447;48.742;8.972;2023-11-21T08:24:21;96342.81;;;8.90;100.00
43486;BME280;30447;48.742;8.972;2023-11-21T08:26:48;96340.22;;;8.96;100.00
43486;BME280;30447;48.742;8.972;2023-11-21T08:29:15;96341.13;;;8.78;100.00
43486;BME280;30447;48.742;8.972;2023-11-21T08:31:42;96339.41;;;8.80;100.00
43486;BME280;30447;48.742;8.972;2023-11-21T08:34:11;96345.41;;;8.84;100.00
43486;BME280;30447;48.742;8.972;2023-11-21T08:36:42;96344.56;;;8.83;100.00
43486;BME280;30447;48.742;8.972;2023-11-21T08:39:09;96343.63;;;9.03;100.00
43486;BME280;30447;48.742;8.972;2023-11-21T08:41:39;96346.25;;;8.97;100.00
43486;BME280;30447;48.742;8.972;2023-11-21T08:44:06;96348.78;;;9.19;100.00
43486;BME280;30447;48.742;8.972;2023-11-21T08:46:33;96345.38;;;9.01;100.00
43486;BME280;30447;48.742;8.972;2023-11-21T08:49:03;96357.41;;;9.02;100.00
43486;BME280;30447;48.742;8.972;2023-11-21T08:51:30;96354.84;;;9.00;100.00
43486;BME280;30447;48.742;8.972;2023-11-21T08:53:57;96354.81;;;9.10;100.00
43486;BME280;30447;48.742;8.972;2023-11-21T08:56:27;96357.37;;;9.16;100.00
43486;BME280;30447;48.742;8.972;2023-11-21T08:58:53;96365.19;;;9.00;100.00
43486;BME280;30447;48.742;8.972;2023-11-21T09:01:20;96361.69;;;9.17;100.00
43486;BME280;30447;48.742;8.972;2023-11-21T09:03:47;96373.81;;;9.03;100.00
43486;BME280;30447;48.742;8.972;2023-11-21T09:06:14;96367.72;;;9.11;100.00
43486;BME280;30447;48.742;8.972;2023-11-21T09:08:40;96378.03;;;9.16;100.00
43486;BME280;30447;48.742;8.972;2023-11-21T09:11:08;96372.94;;;9.00;100.00
43486;BME280;30447;48.742;8.972;2023-11-21T09:13:34;96368.59;;;9.10;100.00
43486;BME280;30447;48.742;8.972;2023-11-21T09:16:01;96379.81;;;9.08;100.00
43486;BME280;30447;48.742;8.972;2023-11-21T09:18:28;96384.94;;;9.11;100.00
43486;BME280;30447;48.742;8.972;2023-11-21T09:20:55;96385.84;;;9.02;100.00
43486;BME280;30447;48.742;8.972;2023-11-21T09:23:22;96389.28;;;9.06;100.00
43486;BME280;30447;48.742;8.972;2023-11-21T09:25:48;96393.63;;;8.96;100.00
43486;BME280;30447;48.742;8.972;2023-11-21T09:28:16;96390.19;;;8.91;100.00
43486;BME280;30447;48.742;8.972;2023-11-21T09:30:43;96388.47;;;8.91;100.00
43486;BME280;30447;48.742;8.972;2023-11-21T09:33:10;96392.75;;;8.95;100.00
43486;BME280;30447;48.742;8.972;2023-11-21T09:35:37;96394.50;;;8.95;100.00
43486;BME280;30447;48.742;8.972;2023-11-21T09:38:04;96394.47;;;9.03;100.00
43486;BME280;30447;48.742;8.972;2023-11-21T09:40:37;96401.34;;;9.11;100.00
43486;BME280;30447;48.742;8.972;2023-11-21T09:43:16;96402.19;;;9.13;100.00
43486;BME280;30447;48.742;8.972;2023-11-21T09:45:48;96398.78;;;9.05;100.00
43486;BME280;30447;48.742;8.972;2023-11-21T09:48:24;96406.53;;;8.94;100.00
43486;BME280;30447;48.742;8.972;2023-11-21T09:50:53;96403.97;;;8.94;100.00
43486;BME280;30447;48.742;8.972;2023-11-21T09:53:22;96408.25;;;9.00;100.00
43486;BME280;30447;48.742;8.972;2023-11-21T09:55:52;96403.94;;;9.04;100.00
43486;BME280;30447;48.742;8.972;2023-11-21T09:58:20;96398.75;;;9.13;100.00
43486;BME280;30447;48.742;8.972;2023-11-21T10:00:53;96406.50;;;9.11;100.00
43486;BME280;30447;48.742;8.972;2023-11-21T10:03:22;96412.53;;;9.13;100.00
43486;BME280;30447;48.742;8.972;2023-11-21T10:05:50;96406.47;;;9.21;100.00
43486;BME280;30447;48.742;8.972;2023-11-21T10:08:22;96409.94;;;9.13;100.00
43486;BME280;30447;48.742;8.972;2023-11-21T10:10:53;96403.91;;;9.18;100.00
43486;BME280;30447;48.742;8.972;2023-11-21T10:13:20;96409.91;;;9.24;100.00
43486;BME280;30447;48.742;8.972;2023-11-21T10:15:51;96413.41;;;9.17;100.00
43486;BME280;30447;48.742;8.972;2023-11-21T10:18:20;96415.12;;;9.21;100.00
43486;BME280;30447;48.742;8.972;2023-11-21T10:20:49;96414.25;;;9.18;100.00
43486;BME280;30447;48.742;8.972;2023-11-21T10:23:20;96411.63;;;9.27;100.00
43486;BME280;30447;48.742;8.972;2023-11-21T10:25:48;96409.06;;;9.18;100.00
43486;BME280;30447;48.742;8.972;2023-11-21T10:28:17;96420.38;;;8.71;100.00
43486;BME280;30447;48.742;8.972;2023-11-21T10:30:44;96416.91;;;8.86;100.00
43486;BME280;30447;48.742;8.972;2023-11-21T10:33:11;96416.00;;;8.95;100.00
43486;BME280;30447;48.742;8.972;2023-11-21T10:35:45;96409.03;;;9.29;100.00
43486;BME280;30447;48.742;8.972;2023-11-21T10:38:17;96411.63;;;9.27;100.00
43486;BME280;30447;48.742;8.972;2023-11-21T10:40:46;96419.44;;;9.00;100.00
43486;BME280;30447;48.742;8.972;2023-11-21T10:43:14;96424.66;;;8.62;100.00
43486;BME280;30447;48.742;8.972;2023-11-21T10:45:44;96429.78;;;9.05;100.00
43486;BME280;30447;48.742;8.972;2023-11-21T10:48:14;96424.63;;;9.04;100.00
43486;BME280;30447;48.742;8.972;2023-11-21T10:50:46;96425.50;;;9.03;100.00
43486;BME280;30447;48.742;8.972;2023-11-21T10:53:14;96422.03;;;9.00;100.00
43486;BME280;30447;48.742;8.972;2023-11-21T10:55:40;96422.88;;;9.10;100.00
43486;BME280;30447;48.742;8.972;2023-11-21T10:58:10;96433.22;;;9.18;100.00
43486;BME280;30447;48.742;8.972;2023-11-21T11:00:40;96423.69;;;9.31;100.00
43486;BME280;30447;48.742;8.972;2023-11-21T11:03:06;96422.81;;;9.34;100.00
43486;BME280;30447;48.742;8.972;2023-11-21T11:05:40;96422.81;;;9.32;100.00
43486;BME280;30447;48.742;8.972;2023-11-21T11:08:19;96423.66;;;9.36;100.00
43486;BME280;30447;48.742;8.972;2023-11-21T11:10:52;96428.91;;;9.12;100.00
43486;BME280;30447;48.742;8.972;2023-11-21T11:13:19;96429.75;;;9.19;100.00
43486;BME280;30447;48.742;8.972;2023-11-21T11:15:49;96414.25;;;9.15;100.00
43486;BME280;30447;48.742;8.972;2023-11-21T11:18:16;96424.66;;;8.80;100.00
43486;BME280;30447;48.742;8.972;2023-11-21T11:20:46;96423.75;;;9.06;100.00
43486;BME280;30447;48.742;8.972;2023-11-21T11:23:45;96422.94;;;8.84;100.00
43486;BME280;30447;48.742;8.972;2023-11-21T11:26:26;96429.81;;;8.91;100.00
43486;BME280;30447;48.742;8.972;2023-11-21T11:28:59;96427.19;;;9.11;100.00
43486;BME280;30447;48.742;8.972;2023-11-21T11:32:00;96428.75;;;9.58;100.00
43486;BME280;30447;48.742;8.972;2023-11-21T11:34:56;96432.31;;;9.29;100.00
43486;BME280;30447;48.742;8.972;2023-11-21T11:37:30;96440.09;;;9.21;100.00
43486;BME280;30447;48.742;8.972;2023-11-21T11:39:56;96430.56;;;9.32;100.00
43486;BME280;30447;48.742;8.972;2023-11-21T11:42:23;96433.25;;;9.03;100.00
43486;BME280;30447;48.742;8.972;2023-11-21T11:44:51;96436.69;;;9.09;100.00
43486;BME280;30447;48.742;8.972;2023-11-21T11:47:32;96437.53;;;9.15;100.00
43486;BME280;30447;48.742;8.972;2023-11-21T11:50:07;96439.19;;;9.30;100.00
43486;BME280;30447;48.742;8.972;2023-11-21T11:52:47;96440.84;;;9.49;100.00
43486;BME280;30447;48.742;8.972;2023-11-21T11:55:18;96449.59;;;9.19;100.00
43486;BME280;30447;48.742;8.972;2023-11-21T11:57:51;96447.00;;;9.08;100.00
43486;BME280;30447;48.742;8.972;2023-11-21T12:00:22;96443.59;;;8.87;100.00
43486;BME280;30447;48.742;8.972;2023-11-21T12:03:02;96441.03;;;8.79;100.00
43486;BME280;30447;48.742;8.972;2023-11-21T12:05:33;96443.56;;;8.99;100.00
43486;BME280;30447;48.742;8.972;2023-11-21T12:08:11;96440.13;;;8.93;100.00
43486;BME280;30447;48.742;8.972;2023-11-21T12:10:39;96443.63;;;8.89;100.00
43486;BME280;30447;48.742;8.972;2023-11-21T12:13:08;96442.72;;;8.99;100.00
43486;BME280;30447;48.742;8.972;2023-11-21T12:15:37;96451.34;;;9.03;100.00
43486;BME280;30447;48.742;8.972;2023-11-21T12:18:04;96451.25;;;9.34;100.00
43486;BME280;30447;48.742;8.972;2023-11-21T12:20:32;96438.16;;;9.74;100.00
43486;BME280;30447;48.742;8.972;2023-11-21T12:23:05;96446.03;;;9.54;100.00
43486;BME280;30447;48.742;8.972;2023-11-21T12:25:32;96443.28;;;9.87;100.00
43486;BME280;30447;48.742;8.972;2023-11-21T12:28:01;96447.63;;;9.77;100.00
43486;BME280;30447;48.742;8.972;2023-11-21T12:30:30;96448.59;;;9.59;100.00
43486;BME280;30447;48.742;8.972;2023-11-21T12:33:04;96445.16;;;9.57;100.00
43486;BME280;30447;48.742;8.972;2023-11-21T12:35:34;96443.41;;;9.62;100.00
43486;BME280;30447;48.742;8.972;2023-11-21T12:38:03;96452.94;;;9.47;100.00
43486;BME280;30447;48.742;8.972;2023-11-21T12:40:35;96454.75;;;9.26;100.00
43486;BME280;30447;48.742;8.972;2023-11-21T12:43:02;96456.41;;;9.45;100.00
43486;BME280;30447;48.742;8.972;2023-11-21T12:45:30;96449.31;;;9.87;100.00
43486;BME280;30447;48.742;8.972;2023-11-21T12:48:00;96453.69;;;9.76;100.00
43486;BME280;30447;48.742;8.972;2023-11-21T12:50:35;96458.00;;;9.78;100.00
43486;BME280;30447;48.742;8.972;2023-11-21T12:53:05;96452.03;;;9.58;100.00
43486;BME280;30447;48.742;8.972;2023-11-21T12:55:36;96457.25;;;9.48;100.00
43486;BME280;30447;48.742;8.972;2023-11-21T12:58:05;96464.03;;;9.71;100.00
43486;BME280;30447;48.742;8.972;2023-11-21T13:00:38;96464.16;;;9.45;100.00
43486;BME280;30447;48.742;8.972;2023-11-21T13:03:14;96460.62;;;9.68;100.00
43486;BME280;30447;48.742;8.972;2023-11-21T13:05:53;96470.06;;;9.79;100.00